sensor_id;sensor_type;location;lat;lon;timestamp;pressure;altitude;pressure_sealevel;temperature;humidity
69855;BME280;57146;48.140;16.304;2023-06-19T00:01:43;99170.69;;;18.61;66.25
69855;BME280;57146;48.140;16.304;2023-06-19T00:04:10;99184.78;;;18.62;66.42
69855;BME280;57146;48.140;16.304;2023-06-19T00:06:37;99179.13;;;18.67;66.14
69855;BME280;57146;48.140;16.304;2023-06-19T00:09:06;99186.72;;;18.65;66.15
69855;BME280;57146;48.140;16.304;2023-06-19T00:11:33;99175.00;;;18.70;65.97
69855;BME280;57146;48.140;16.304;2023-06-19T00:14:00;99185.31;;;18.71;66.00
69855;BME280;57146;48.140;16.304;2023-06-19T00:16:27;99184.06;;;18.65;66.29
69855;BME280;57146;48.140;16.304;2023-06-19T00:18:54;99177.13;;;18.60;66.51
69855;BME280;57146;48.140;16.304;2023-06-19T00:21:22;99170.50;;;18.51;66.87
69855;BME280;57146;48.140;16.304;2023-06-19T00:23:51;99169.66;;;18.47;67.04
69855;BME280;57146;48.140;16.304;2023-06-19T00:26:19;99175.50;;;18.33;67.77
69855;BME280;57146;48.140;16.304;2023-06-19T00:28:46;99168.44;;;18.21;68.26
69855;BME280;57146;48.140;16.304;2023-06-19T00:31:13;99175.03;;;18.08;68.07
69855;BME280;57146;48.140;16.304;2023-06-19T00:33:40;99171.25;;;18.09;68.45
69855;BME280;57146;48.140;16.304;2023-06-19T00:36:11;99167.97;;;18.15;67.94
69855;BME280;57146;48.140;16.304;2023-06-19T00:38:39;99163.41;;;18.16;67.98
69855;BME280;57146;48.140;16.304;2023-06-19T00:41:06;99175.53;;;18.13;67.88
69855;BME280;57146;48.140;16.304;2023-06-19T00:43:34;99173.84;;;18.05;67.93
69855;BME280;57146;48.140;16.304;2023-06-19T00:46:01;99177.34;;;18.09;68.13
69855;BME280;57146;48.140;16.304;2023-06-19T00:48:30;99174.81;;;18.16;68.09
69855;BME280;57146;48.140;16.304;2023-06-19T00:50:58;99161.09;;;18.14;67.93
69855;BME280;57146;48.140;16.304;2023-06-19T00:53:26;99172.66;;;18.03;68.40
69855;BME280;57146;48.140;16.304;2023-06-19T00:55:55;99166.78;;;17.93;68.79
69855;BME280;57146;48.140;16.304;2023-06-19T00:58:23;99165.50;;;17.87;69.25
69855;BME280;57146;48.140;16.304;2023-06-19T01:00:50;99173.88;;;17.86;69.08
69855;BME280;57146;48.140;16.304;2023-06-19T01:03:33;99176.63;;;17.74;69.25
69855;BME280;57146;48.140;16.304;2023-06-19T01:06:05;99182.91;;;17.65;69.37
69855;BME280;57146;48.140;16.304;2023-06-19T01:08:45;99182.56;;;17.67;69.31
69855;BME280;57146;48.140;16.304;2023-06-19T01:11:18;99176.19;;;17.71;69.54
69855;BME280;57146;48.140;16.304;2023-06-19T01:14:18;99172.41;;;17.73;69.33
69855;BME280;57146;48.140;16.304;2023-06-19T01:16:43;99174.50;;;17.63;69.48
69855;BME280;57146;48.140;16.304;2023-06-19T01:19:15;99166.88;;;17.62;69.46
69855;BME280;57146;48.140;16.304;2023-06-19T01:21:45;99175.56;;;17.59;69.79
69855;BME280;57146;48.140;16.304;2023-06-19T01:24:13;99169.78;;;17.57;69.94
69855;BME280;57146;48.140;16.304;2023-06-19T01:26:42;99177.78;;;17.57;70.18
69855;BME280;57146;48.140;16.304;2023-06-19T01:29:09;99178.75;;;17.48;70.36
69855;BME280;57146;48.140;16.304;2023-06-19T01:34:25;99173.47;;;17.33;71.13
69855;BME280;57146;48.140;16.304;2023-06-19T01:36:54;99165.84;;;17.31;71.57
69855;BME280;57146;48.140;16.304;2023-06-19T01:39:21;99174.84;;;17.27;71.70
69855;BME280;57146;48.140;16.304;2023-06-19T01:41:49;99166.03;;;17.22;71.62
69855;BME280;57146;48.140;16.304;2023-06-19T01:44:17;99162.25;;;17.23;71.86
69855;BME280;57146;48.140;16.304;2023-06-19T01:46:49;99156.75;;;17.16;72.11
69855;BME280;57146;48.140;16.304;2023-06-19T01:49:18;99154.03;;;17.13;71.85
69855;BME280;57146;48.140;16.304;2023-06-19T01:51:45;99159.25;;;17.09;71.93
69855;BME280;57146;48.140;16.304;2023-06-19T01:54:12;99154.22;;;17.04;72.50
69855;BME280;57146;48.140;16.304;2023-06-19T01:56:41;99153.00;;;17.02;72.60
69855;BME280;57146;48.140;16.304;2023-06-19T01:59:08;99152.94;;;16.98;73.04
69855;BME280;57146;48.140;16.304;2023-06-19T02:01:34;99155.59;;;16.98;73.01
69855;BME280;57146;48.140;16.304;2023-06-19T02:04:01;99161.34;;;16.84;73.58
69855;BME280;57146;48.140;16.304;2023-06-19T02:06:30;99156.78;;;16.85;73.56
69855;BME280;57146;48.140;16.304;2023-06-19T02:08:57;99162.72;;;16.94;73.46
69855;BME280;57146;48.140;16.304;2023-06-19T02:11:24;99159.91;;;16.87;73.33
69855;BME280;57146;48.140;16.304;2023-06-19T02:13:53;99161.25;;;16.81;73.63
69855;BME280;57146;48.140;16.304;2023-06-19T02:16:20;99156.28;;;16.79;73.53
69855;BME280;57146;48.140;16.304;2023-06-19T02:18:48;99153.19;;;16.77;73.60
69855;BME280;57146;48.140;16.304;2023-06-19T02:21:15;99162.63;;;16.74;73.76
69855;BME280;57146;48.140;16.304;2023-06-19T02:23:42;99165.59;;;16.73;74.21
69855;BME280;57146;48.140;16.304;2023-06-19T02:26:09;99170.47;;;16.71;74.29
69855;BME280;57146;48.140;16.304;2023-06-19T02:28:38;99170.84;;;16.69;74.37
69855;BME280;57146;48.140;16.304;2023-06-19T02:31:05;99166.59;;;16.68;74.44
69855;BME280;57146;48.140;16.304;2023-06-19T02:33:57;99169.53;;;16.63;74.37
69855;BME280;57146;48.140;16.304;2023-06-19T02:36:24;99169.72;;;16.55;74.77
69855;BME280;57146;48.140;16.304;2023-06-19T02:38:51;99160.53;;;16.52;74.78
69855;BME280;57146;48.140;16.304;2023-06-19T02:41:18;99171.47;;;16.50;75.09
69855;BME280;57146;48.140;16.304;2023-06-19T02:44:08;99163.09;;;16.48;75.22
69855;BME280;57146;48.140;16.304;2023-06-19T02:46:36;99165.56;;;16.41;75.49
69855;BME280;57146;48.140;16.304;2023-06-19T02:49:04;99168.13;;;16.38;76.06
69855;BME280;57146;48.140;16.304;2023-06-19T02:51:31;99169.50;;;16.32;76.40
69855;BME280;57146;48.140;16.304;2023-06-19T02:53:58;99169.94;;;16.34;76.01
69855;BME280;57146;48.140;16.304;2023-06-19T02:56:26;99173.78;;;16.36;75.95
69855;BME280;57146;48.140;16.304;2023-06-19T02:58:54;99182.19;;;16.38;76.24
69855;BME280;57146;48.140;16.304;2023-06-19T03:01:21;99180.75;;;16.41;76.07
69855;BME280;57146;48.140;16.304;2023-06-19T03:03:48;99173.53;;;16.41;75.82
69855;BME280;57146;48.140;16.304;2023-06-19T03:06:18;99169.34;;;16.40;75.25
69855;BME280;57146;48.140;16.304;2023-06-19T03:08:47;99174.03;;;16.31;76.48
69855;BME280;57146;48.140;16.304;2023-06-19T03:11:14;99181.22;;;16.31;76.07
69855;BME280;57146;48.140;16.304;2023-06-19T03:13:50;99176.25;;;16.29;75.86
69855;BME280;57146;48.140;16.304;2023-06-19T03:16:19;99182.44;;;16.33;76.04
69855;BME280;57146;48.140;16.304;2023-06-19T03:18:48;99175.38;;;16.25;76.71
69855;BME280;57146;48.140;16.304;2023-06-19T03:21:20;99181.97;;;16.15;77.36
69855;BME280;57146;48.140;16.304;2023-06-19T03:23:49;99182.06;;;16.19;77.31
69855;BME280;57146;48.140;16.304;2023-06-19T03:26:20;99182.75;;;16.16;77.29
69855;BME280;57146;48.140;16.304;2023-06-19T03:28:48;99186.47;;;16.15;77.52
69855;BME280;57146;48.140;16.304;2023-06-19T03:31:15;99192.41;;;16.08;78.06
69855;BME280;57146;48.140;16.304;2023-06-19T03:33:42;99190.94;;;16.11;77.77
69855;BME280;57146;48.140;16.304;2023-06-19T03:36:11;99191.28;;;16.09;77.81
69855;BME280;57146;48.140;16.304;2023-06-19T03:38:49;99190.06;;;16.07;78.86
69855;BME280;57146;48.140;16.304;2023-06-19T03:41:20;99197.38;;;16.10;78.16
69855;BME280;57146;48.140;16.304;2023-06-19T03:43:48;99191.81;;;16.15;78.11
69855;BME280;57146;48.140;16.304;2023-06-19T03:46:16;99188.72;;;16.13;78.91
69855;BME280;57146;48.140;16.304;2023-06-19T03:48:45;99192.50;;;16.12;79.02
69855;BME280;57146;48.140;16.304;2023-06-19T03:51:12;99189.16;;;16.15;78.55
69855;BME280;57146;48.140;16.304;2023-06-19T03:53:39;99191.56;;;16.20;78.78
69855;BME280;57146;48.140;16.304;2023-06-19T03:56:06;99193.78;;;16.18;78.74
69855;BME280;57146;48.140;16.304;2023-06-19T03:58:33;99185.50;;;16.19;79.07
69855;BME280;57146;48.140;16.304;2023-06-19T04:01:01;99183.59;;;16.20;79.47
69855;BME280;57146;48.140;16.304;2023-06-19T04:03:34;99182.69;;;16.28;79.25
69855;BME280;57146;48.140;16.304;2023-06-19T04:06:01;99191.94;;;16.34;79.34
69855;BME280;57146;48.140;16.304;2023-06-19T04:08:30;99204.31;;;16.42;79.25
69855;BME280;57146;48.140;16.304;2023-06-19T04:10:57;99203.28;;;16.47;79.04
69855;BME280;57146;48.140;16.304;2023-06-19T04:13:27;99199.63;;;16.51;78.94
69855;BME280;57146;48.140;16.304;2023-06-19T04:15:54;99208.78;;;16.54;78.68
69855;BME280;57146;48.140;16.304;2023-06-19T04:18:21;99207.31;;;16.57;79.48
69855;BME280;57146;48.140;16.304;2023-06-19T04:20:48;99206.28;;;16.61;79.40
69855;BME280;57146;48.140;16.304;2023-06-19T04:23:16;99209.03;;;16.65;79.36
69855;BME280;57146;48.140;16.304;2023-06-19T04:25:42;99216.44;;;16.71;79.52
69855;BME280;57146;48.140;16.304;2023-06-19T04:28:10;99208.56;;;16.75;79.99
69855;BME280;57146;48.140;16.304;2023-06-19T04:30:38;99208.66;;;16.79;79.96
69855;BME280;57146;48.140;16.304;2023-06-19T04:33:07;99211.09;;;16.84;80.09
69855;BME280;57146;48.140;16.304;2023-06-19T04:35:34;99222.66;;;16.91;79.17
69855;BME280;57146;48.140;16.304;2023-06-19T04:38:01;99215.97;;;16.97;78.28
69855;BME280;57146;48.140;16.304;2023-06-19T04:40:29;99215.47;;;17.08;77.65
69855;BME280;57146;48.140;16.304;2023-06-19T04:42:56;99222.81;;;17.14;78.22
69855;BME280;57146;48.140;16.304;2023-06-19T04:45:23;99223.25;;;17.16;78.04
69855;BME280;57146;48.140;16.304;2023-06-19T04:47:50;99222.66;;;17.23;78.24
69855;BME280;57146;48.140;16.304;2023-06-19T04:50:21;99219.41;;;17.30;78.19
69855;BME280;57146;48.140;16.304;2023-06-19T04:52:49;99224.44;;;17.35;77.82
69855;BME280;57146;48.140;16.304;2023-06-19T04:55:16;99236.00;;;17.42;77.41
69855;BME280;57146;48.140;16.304;2023-06-19T04:57:43;99236.94;;;17.50;77.96
69855;BME280;57146;48.140;16.304;2023-06-19T05:00:13;99226.38;;;17.54;77.52
69855;BME280;57146;48.140;16.304;2023-06-19T05:02:40;99234.50;;;17.61;77.81
69855;BME280;57146;48.140;16.304;2023-06-19T05:05:07;99235.78;;;17.67;76.15
69855;BME280;57146;48.140;16.304;2023-06-19T05:07:34;99236.41;;;17.76;76.36
69855;BME280;57146;48.140;16.304;2023-06-19T05:10:06;99239.31;;;17.87;75.92
69855;BME280;57146;48.140;16.304;2023-06-19T05:12:34;99231.78;;;17.92;76.11
69855;BME280;57146;48.140;16.304;2023-06-19T05:15:03;99235.72;;;17.99;76.05
69855;BME280;57146;48.140;16.304;2023-06-19T05:17:34;99230.56;;;18.06;75.20
69855;BME280;57146;48.140;16.304;2023-06-19T05:20:03;99236.78;;;18.13;74.41
69855;BME280;57146;48.140;16.304;2023-06-19T05:22:31;99235.75;;;18.18;74.36
69855;BME280;57146;48.140;16.304;2023-06-19T05:24:58;99238.56;;;18.25;74.48
69855;BME280;57146;48.140;16.304;2023-06-19T05:27:25;99238.69;;;18.32;74.08
69855;BME280;57146;48.140;16.304;2023-06-19T05:29:52;99245.63;;;18.37;74.03
69855;BME280;57146;48.140;16.304;2023-06-19T05:32:19;99245.75;;;18.44;73.59
69855;BME280;57146;48.140;16.304;2023-06-19T05:34:46;99243.63;;;18.53;73.28
69855;BME280;57146;48.140;16.304;2023-06-19T05:37:13;99236.19;;;18.62;73.14
69855;BME280;57146;48.140;16.304;2023-06-19T05:39:40;99234.78;;;18.69;73.07
69855;BME280;57146;48.140;16.304;2023-06-19T05:42:07;99241.03;;;18.76;71.14
69855;BME280;57146;48.140;16.304;2023-06-19T05:44:34;99243.47;;;18.85;71.33
69855;BME280;57146;48.140;16.304;2023-06-19T05:47:00;99250.47;;;18.93;71.27
69855;BME280;57146;48.140;16.304;2023-06-19T05:49:27;99252.06;;;18.98;69.89
69855;BME280;57146;48.140;16.304;2023-06-19T05:51:56;99250.28;;;19.05;68.89
69855;BME280;57146;48.140;16.304;2023-06-19T05:54:23;99247.63;;;19.05;68.71
69855;BME280;57146;48.140;16.304;2023-06-19T05:56:50;99243.16;;;19.13;69.28
69855;BME280;57146;48.140;16.304;2023-06-19T05:59:17;99247.91;;;19.23;68.83
69855;BME280;57146;48.140;16.304;2023-06-19T06:01:44;99249.59;;;19.35;68.80
69855;BME280;57146;48.140;16.304;2023-06-19T06:04:11;99251.41;;;19.54;70.07
69855;BME280;57146;48.140;16.304;2023-06-19T06:06:40;99243.59;;;19.65;68.17
69855;BME280;57146;48.140;16.304;2023-06-19T06:09:07;99252.50;;;19.76;68.55
69855;BME280;57146;48.140;16.304;2023-06-19T06:11:34;99248.44;;;19.85;67.26
69855;BME280;57146;48.140;16.304;2023-06-19T06:14:01;99252.03;;;19.97;67.20
69855;BME280;57146;48.140;16.304;2023-06-19T06:16:28;99249.88;;;20.09;66.49
69855;BME280;57146;48.140;16.304;2023-06-19T06:18:56;99256.19;;;20.24;66.74
69855;BME280;57146;48.140;16.304;2023-06-19T06:21:23;99257.06;;;20.36;65.45
69855;BME280;57146;48.140;16.304;2023-06-19T06:23:50;99258.25;;;20.42;65.07
69855;BME280;57146;48.140;16.304;2023-06-19T06:26:17;99255.38;;;20.54;64.09
69855;BME280;57146;48.140;16.304;2023-06-19T06:28:44;99270.03;;;20.67;63.48
69855;BME280;57146;48.140;16.304;2023-06-19T06:31:11;99271.63;;;20.75;63.68
69855;BME280;57146;48.140;16.304;2023-06-19T06:33:38;99280.38;;;20.72;61.90
69855;BME280;57146;48.140;16.304;2023-06-19T06:36:05;99279.72;;;20.83;63.70
69855;BME280;57146;48.140;16.304;2023-06-19T06:38:34;99279.78;;;20.90;64.16
69855;BME280;57146;48.140;16.304;2023-06-19T06:41:01;99265.78;;;21.03;63.96
69855;BME280;57146;48.140;16.304;2023-06-19T06:43:28;99268.97;;;21.20;62.68
69855;BME280;57146;48.140;16.304;2023-06-19T06:45:56;99270.19;;;21.29;62.78
69855;BME280;57146;48.140;16.304;2023-06-19T06:48:24;99273.41;;;21.46;61.29
69855;BME280;57146;48.140;16.304;2023-06-19T06:51:16;99271.22;;;21.66;61.01
69855;BME280;57146;48.140;16.304;2023-06-19T06:53:44;99273.56;;;21.71;60.53
69855;BME280;57146;48.140;16.304;2023-06-19T06:56:11;99264.84;;;21.85;57.96
69855;BME280;57146;48.140;16.304;2023-06-19T06:58:39;99273.28;;;21.90;58.48
69855;BME280;57146;48.140;16.304;2023-06-19T07:01:07;99267.19;;;21.97;57.96
69855;BME280;57146;48.140;16.304;2023-06-19T07:03:34;99271.41;;;22.02;57.37
69855;BME280;57146;48.140;16.304;2023-06-19T07:06:02;99267.97;;;22.05;57.02
69855;BME280;57146;48.140;16.304;2023-06-19T07:08:29;99273.44;;;22.22;57.15
69855;BME280;57146;48.140;16.304;2023-06-19T07:10:56;99271.13;;;22.17;55.50
69855;BME280;57146;48.140;16.304;2023-06-19T07:13:48;99276.84;;;22.16;57.32
69855;BME280;57146;48.140;16.304;2023-06-19T07:16:16;99272.69;;;22.29;56.29
69855;BME280;57146;48.140;16.304;2023-06-19T07:19:07;99283.47;;;22.47;57.30
69855;BME280;57146;48.140;16.304;2023-06-19T07:21:34;99288.50;;;22.49;56.53
69855;BME280;57146;48.140;16.304;2023-06-19T07:24:01;99293.06;;;22.55;56.19
69855;BME280;57146;48.140;16.304;2023-06-19T07:26:29;99281.59;;;22.62;58.32
69855;BME280;57146;48.140;16.304;2023-06-19T07:28:56;99280.81;;;22.58;55.42
69855;BME280;57146;48.140;16.304;2023-06-19T07:31:23;99283.41;;;22.26;55.63
69855;BME280;57146;48.140;16.304;2023-06-19T07:33:54;99276.44;;;22.14;56.57
69855;BME280;57146;48.140;16.304;2023-06-19T07:36:22;99283.47;;;22.40;57.60
69855;BME280;57146;48.140;16.304;2023-06-19T07:38:48;99272.78;;;22.58;56.31
69855;BME280;57146;48.140;16.304;2023-06-19T07:41:17;99269.38;;;22.71;56.72
69855;BME280;57146;48.140;16.304;2023-06-19T07:43:45;99267.09;;;22.84;57.06
69855;BME280;57146;48.140;16.304;2023-06-19T07:46:12;99270.59;;;23.03;56.80
69855;BME280;57146;48.140;16.304;2023-06-19T07:48:42;99271.75;;;23.16;56.00
69855;BME280;57146;48.140;16.304;2023-06-19T07:51:11;99265.97;;;23.21;55.62
69855;BME280;57146;48.140;16.304;2023-06-19T07:53:37;99266.38;;;23.34;55.53
69855;BME280;57146;48.140;16.304;2023-06-19T07:56:35;99269.78;;;23.45;55.45
69855;BME280;57146;48.140;16.304;2023-06-19T07:59:03;99268.63;;;23.53;54.55
69855;BME280;57146;48.140;16.304;2023-06-19T08:01:31;99266.34;;;23.70;55.94
69855;BME280;57146;48.140;16.304;2023-06-19T08:03:58;99277.03;;;23.84;55.26
69855;BME280;57146;48.140;16.304;2023-06-19T08:06:26;99278.16;;;23.90;53.44
69855;BME280;57146;48.140;16.304;2023-06-19T08:08:52;99285.06;;;23.98;54.53
69855;BME280;57146;48.140;16.304;2023-06-19T08:11:19;99272.38;;;24.02;52.24
69855;BME280;57146;48.140;16.304;2023-06-19T08:13:48;99271.19;;;24.10;51.80
69855;BME280;57146;48.140;16.304;2023-06-19T08:16:16;99273.84;;;24.18;52.05
69855;BME280;57146;48.140;16.304;2023-06-19T08:18:45;99278.41;;;24.28;53.80
69855;BME280;57146;48.140;16.304;2023-06-19T08:21:12;99277.19;;;24.43;50.56
69855;BME280;57146;48.140;16.304;2023-06-19T08:23:40;99279.84;;;24.50;50.47
69855;BME280;57146;48.140;16.304;2023-06-19T08:26:07;99275.63;;;24.49;50.04
69855;BME280;57146;48.140;16.304;2023-06-19T08:28:38;99273.66;;;24.57;50.29
69855;BME280;57146;48.140;16.304;2023-06-19T08:31:05;99267.09;;;24.61;51.34
69855;BME280;57146;48.140;16.304;2023-06-19T08:33:33;99273.19;;;24.73;52.11
69855;BME280;57146;48.140;16.304;2023-06-19T08:36:03;99272.72;;;24.85;50.64
69855;BME280;57146;48.140;16.304;2023-06-19T08:38:30;99275.00;;;24.87;48.91
69855;BME280;57146;48.140;16.304;2023-06-19T08:40:58;99285.06;;;24.79;49.12
69855;BME280;57146;48.140;16.304;2023-06-19T08:43:25;99287.31;;;24.88;49.94
69855;BME280;57146;48.140;16.304;2023-06-19T08:46:14;99291.56;;;24.85;48.04
69855;BME280;57146;48.140;16.304;2023-06-19T08:48:41;99292.31;;;24.89;48.05
69855;BME280;57146;48.140;16.304;2023-06-19T08:51:11;99298.06;;;24.91;47.37
69855;BME280;57146;48.140;16.304;2023-06-19T08:53:47;99291.16;;;24.87;47.16
69855;BME280;57146;48.140;16.304;2023-06-19T08:56:14;99298.06;;;24.91;49.85
69855;BME280;57146;48.140;16.304;2023-06-19T08:58:41;99291.84;;;25.01;48.93
69855;BME280;57146;48.140;16.304;2023-06-19T09:01:08;99295.25;;;25.13;48.72
69855;BME280;57146;48.140;16.304;2023-06-19T09:03:35;99290.16;;;25.22;47.86
69855;BME280;57146;48.140;16.304;2023-06-19T09:06:08;99292.06;;;25.25;49.10
69855;BME280;57146;48.140;16.304;2023-06-19T09:08:38;99290.91;;;25.26;48.61
69855;BME280;57146;48.140;16.304;2023-06-19T09:11:10;99289.09;;;25.12;47.60
69855;BME280;57146;48.140;16.304;2023-06-19T09:13:45;99294.50;;;25.12;49.51
69855;BME280;57146;48.140;16.304;2023-06-19T09:16:14;99290.09;;;25.29;47.64
69855;BME280;57146;48.140;16.304;2023-06-19T09:18:47;99290.03;;;25.36;47.20
69855;BME280;57146;48.140;16.304;2023-06-19T09:21:19;99291.59;;;25.37;47.57
69855;BME280;57146;48.140;16.304;2023-06-19T09:23:47;99295.09;;;25.30;46.78
69855;BME280;57146;48.140;16.304;2023-06-19T09:26:17;99290.41;;;25.38;46.94
69855;BME280;57146;48.140;16.304;2023-06-19T09:28:45;99286.41;;;25.53;48.22
69855;BME280;57146;48.140;16.304;2023-06-19T09:31:12;99289.00;;;25.64;49.18
69855;BME280;57146;48.140;16.304;2023-06-19T09:33:40;99281.22;;;25.73;47.35
69855;BME280;57146;48.140;16.304;2023-06-19T09:36:07;99278.88;;;25.75;48.70
69855;BME280;57146;48.140;16.304;2023-06-19T09:38:38;99282.34;;;25.79;47.69
69855;BME280;57146;48.140;16.304;2023-06-19T09:41:07;99282.66;;;25.85;49.10
69855;BME280;57146;48.140;16.304;2023-06-19T09:43:38;99283.72;;;25.95;50.20
69855;BME280;57146;48.140;16.304;2023-06-19T09:46:06;99286.63;;;26.08;47.56
69855;BME280;57146;48.140;16.304;2023-06-19T09:48:34;99293.91;;;26.11;45.61
69855;BME280;57146;48.140;16.304;2023-06-19T09:51:17;99296.56;;;26.14;45.45
69855;BME280;57146;48.140;16.304;2023-06-19T09:53:48;99293.88;;;26.14;47.30
69855;BME280;57146;48.140;16.304;2023-06-19T09:56:17;99287.63;;;26.21;47.19
69855;BME280;57146;48.140;16.304;2023-06-19T09:58:44;99291.03;;;26.25;47.03
69855;BME280;57146;48.140;16.304;2023-06-19T10:01:12;99281.00;;;26.29;46.78
69855;BME280;57146;48.140;16.304;2023-06-19T10:03:40;99292.88;;;26.32;48.19
69855;BME280;57146;48.140;16.304;2023-06-19T10:06:13;99283.59;;;26.36;46.23
69855;BME280;57146;48.140;16.304;2023-06-19T10:08:43;99278.84;;;26.47;46.57
69855;BME280;57146;48.140;16.304;2023-06-19T10:11:11;99271.78;;;26.54;46.98
69855;BME280;57146;48.140;16.304;2023-06-19T10:13:42;99270.59;;;26.58;46.27
69855;BME280;57146;48.140;16.304;2023-06-19T10:16:20;99272.06;;;26.63;46.12
69855;BME280;57146;48.140;16.304;2023-06-19T10:18:48;99270.78;;;26.71;46.94
69855;BME280;57146;48.140;16.304;2023-06-19T10:21:16;99268.03;;;26.74;47.13
69855;BME280;57146;48.140;16.304;2023-06-19T10:23:53;99264.06;;;26.83;46.16
69855;BME280;57146;48.140;16.304;2023-06-19T10:26:35;99265.88;;;26.89;46.35
69855;BME280;57146;48.140;16.304;2023-06-19T10:29:16;99267.06;;;26.88;45.50
69855;BME280;57146;48.140;16.304;2023-06-19T10:31:44;99271.16;;;26.96;47.23
69855;BME280;57146;48.140;16.304;2023-06-19T10:34:11;99257.66;;;26.96;47.12
69855;BME280;57146;48.140;16.304;2023-06-19T10:36:38;99259.91;;;27.02;44.69
69855;BME280;57146;48.140;16.304;2023-06-19T10:39:05;99264.59;;;26.97;45.36
69855;BME280;57146;48.140;16.304;2023-06-19T10:41:32;99268.47;;;26.96;45.10
69855;BME280;57146;48.140;16.304;2023-06-19T10:44:02;99267.31;;;26.97;44.46
69855;BME280;57146;48.140;16.304;2023-06-19T10:46:31;99264.47;;;27.05;45.10
69855;BME280;57146;48.140;16.304;2023-06-19T10:49:00;99256.63;;;27.14;44.53
69855;BME280;57146;48.140;16.304;2023-06-19T10:51:27;99259.31;;;27.14;44.46
69855;BME280;57146;48.140;16.304;2023-06-19T10:53:55;99258.56;;;27.13;43.76
69855;BME280;57146;48.140;16.304;2023-06-19T10:56:24;99267.38;;;27.17;44.78
69855;BME280;57146;48.140;16.304;2023-06-19T10:59:01;99266.97;;;27.19;45.19
69855;BME280;57146;48.140;16.304;2023-06-19T11:01:48;99265.78;;;27.20;43.57
69855;BME280;57146;48.140;16.304;2023-06-19T11:04:15;99270.75;;;27.25;44.35
69855;BME280;57146;48.140;16.304;2023-06-19T11:06:44;99265.22;;;27.32;44.57
69855;BME280;57146;48.140;16.304;2023-06-19T11:09:12;99260.56;;;27.33;43.77
69855;BME280;57146;48.140;16.304;2023-06-19T11:11:41;99260.50;;;27.36;41.43
69855;BME280;57146;48.140;16.304;2023-06-19T11:14:10;99255.16;;;27.33;42.71
69855;BME280;57146;48.140;16.304;2023-06-19T11:16:39;99251.69;;;27.32;43.15
69855;BME280;57146;48.140;16.304;2023-06-19T11:19:10;99253.50;;;27.39;42.92
69855;BME280;57146;48.140;16.304;2023-06-19T11:21:37;99244.63;;;27.38;43.08
69855;BME280;57146;48.140;16.304;2023-06-19T11:24:06;99248.81;;;27.43;42.05
69855;BME280;57146;48.140;16.304;2023-06-19T11:26:38;99245.53;;;27.52;42.45
69855;BME280;57146;48.140;16.304;2023-06-19T11:29:22;99252.97;;;27.48;44.07
69855;BME280;57146;48.140;16.304;2023-06-19T11:31:51;99251.91;;;27.41;43.34
69855;BME280;57146;48.140;16.304;2023-06-19T11:34:18;99243.16;;;27.34;43.44
69855;BME280;57146;48.140;16.304;2023-06-19T11:36:52;99258.13;;;27.38;43.82
69855;BME280;57146;48.140;16.304;2023-06-19T11:39:19;99255.66;;;27.48;42.65
69855;BME280;57146;48.140;16.304;2023-06-19T11:41:47;99252.59;;;27.45;43.19
69855;BME280;57146;48.140;16.304;2023-06-19T11:44:14;99245.63;;;27.48;42.53
69855;BME280;57146;48.140;16.304;2023-06-19T11:46:42;99250.06;;;27.58;40.03
69855;BME280;57146;48.140;16.304;2023-06-19T11:49:14;99244.91;;;27.64;37.80
69855;BME280;57146;48.140;16.304;2023-06-19T11:51:41;99236.88;;;27.60;37.93
69855;BME280;57146;48.140;16.304;2023-06-19T11:54:10;99232.03;;;27.52;38.23
69855;BME280;57146;48.140;16.304;2023-06-19T11:56:38;99227.13;;;27.47;39.45
69855;BME280;57146;48.140;16.304;2023-06-19T11:59:05;99226.25;;;27.50;39.81
69855;BME280;57146;48.140;16.304;2023-06-19T12:01:33;99238.63;;;27.51;40.21
69855;BME280;57146;48.140;16.304;2023-06-19T12:04:01;99237.00;;;27.53;40.29
69855;BME280;57146;48.140;16.304;2023-06-19T12:06:29;99233.69;;;27.45;40.05
69855;BME280;57146;48.140;16.304;2023-06-19T12:08:56;99228.91;;;27.53;40.03
69855;BME280;57146;48.140;16.304;2023-06-19T12:11:23;99234.81;;;27.48;40.13
69855;BME280;57146;48.140;16.304;2023-06-19T12:13:50;99224.63;;;27.56;40.25
69855;BME280;57146;48.140;16.304;2023-06-19T12:16:17;99225.31;;;27.60;40.29
69855;BME280;57146;48.140;16.304;2023-06-19T12:18:44;99211.66;;;27.67;39.58
69855;BME280;57146;48.140;16.304;2023-06-19T12:21:11;99212.84;;;27.66;40.00
69855;BME280;57146;48.140;16.304;2023-06-19T12:23:58;99215.97;;;27.64;39.34
69855;BME280;57146;48.140;16.304;2023-06-19T12:26:25;99215.09;;;27.67;38.38
69855;BME280;57146;48.140;16.304;2023-06-19T12:28:52;99213.44;;;27.74;37.51
69855;BME280;57146;48.140;16.304;2023-06-19T12:31:20;99217.91;;;27.84;36.88
69855;BME280;57146;48.140;16.304;2023-06-19T12:33:47;99208.28;;;27.83;35.15
69855;BME280;57146;48.140;16.304;2023-06-19T12:36:14;99211.75;;;27.83;36.82
69855;BME280;57146;48.140;16.304;2023-06-19T12:38:41;99207.38;;;27.89;36.94
69855;BME280;57146;48.140;16.304;2023-06-19T12:41:08;99205.91;;;27.85;37.70
69855;BME280;57146;48.140;16.304;2023-06-19T12:43:35;99208.63;;;27.85;36.99
69855;BME280;57146;48.140;16.304;2023-06-19T12:46:02;99210.31;;;27.79;37.13
69855;BME280;57146;48.140;16.304;2023-06-19T12:48:29;99207.94;;;27.81;37.52
69855;BME280;57146;48.140;16.304;2023-06-19T12:50:56;99196.34;;;27.80;36.82
69855;BME280;57146;48.140;16.304;2023-06-19T12:53:23;99209.50;;;27.78;37.33
69855;BME280;57146;48.140;16.304;2023-06-19T12:55:50;99210.31;;;27.79;37.31
69855;BME280;57146;48.140;16.304;2023-06-19T12:58:26;99203.03;;;27.76;36.86
69855;BME280;57146;48.140;16.304;2023-06-19T13:00:53;99200.66;;;27.78;36.77
69855;BME280;57146;48.140;16.304;2023-06-19T13:03:20;99202.13;;;27.82;37.71